sensor_id;sensor_type;location;lat;lon;timestamp;P1;durP1;ratioP1;P2;durP2;ratioP2
51495;SDS011;37572;52.094;4.870;2023-05-25T00:01:35;14.93;;;6.38;;
51495;SDS011;37572;52.094;4.870;2023-05-25T00:04:00;16.20;;;6.90;;
51495;SDS011;37572;52.094;4.870;2023-05-25T00:06:27;12.65;;;5.65;;
51495;SDS011;37572;52.094;4.870;2023-05-25T00:08:54;12.30;;;5.82;;
51495;SDS011;37572;52.094;4.870;2023-05-25T00:11:21;13.98;;;6.53;;
51495;SDS011;37572;52.094;4.870;2023-05-25T00:13:50;15.43;;;6.30;;
51495;SDS011;37572;52.094;4.870;2023-05-25T00:16:16;11.43;;;6.45;;
51495;SDS011;37572;52.094;4.870;2023-05-25T00:18:41;15.32;;;6.88;;
51495;SDS011;37572;52.094;4.870;2023-05-25T00:21:07;14.65;;;7.32;;
51495;SDS011;37572;52.094;4.870;2023-05-25T00:23:32;12.50;;;6.00;;
51495;SDS011;37572;52.094;4.870;2023-05-25T00:25:58;11.75;;;6.75;;
51495;SDS011;37572;52.094;4.870;2023-05-25T00:28:23;14.15;;;7.57;;
51495;SDS011;37572;52.094;4.870;2023-05-25T00:30:49;15.60;;;7.75;;
51495;SDS011;37572;52.094;4.870;2023-05-25T00:33:14;13.55;;;6.97;;
51495;SDS011;37572;52.094;4.870;2023-05-25T00:35:43;19.02;;;7.78;;
51495;SDS011;37572;52.094;4.870;2023-05-25T00:38:15;13.13;;;6.72;;
51495;SDS011;37572;52.094;4.870;2023-05-25T00:40:42;16.00;;;7.38;;
51495;SDS011;37572;52.094;4.870;2023-05-25T00:43:10;13.25;;;6.40;;
51495;SDS011;37572;52.094;4.870;2023-05-25T00:45:37;13.48;;;6.57;;
51495;SDS011;37572;52.094;4.870;2023-05-25T00:48:03;17.13;;;7.47;;
51495;SDS011;37572;52.094;4.870;2023-05-25T00:50:35;16.40;;;8.40;;
51495;SDS011;37572;52.094;4.870;2023-05-25T00:53:01;15.82;;;7.47;;
51495;SDS011;37572;52.094;4.870;2023-05-25T00:55:27;18.92;;;7.28;;
51495;SDS011;37572;52.094;4.870;2023-05-25T00:57:56;14.27;;;6.85;;
51495;SDS011;37572;52.094;4.870;2023-05-25T01:00:24;15.25;;;7.55;;
51495;SDS011;37572;52.094;4.870;2023-05-25T01:02:51;19.58;;;7.20;;
51495;SDS011;37572;52.094;4.870;2023-05-25T01:05:20;18.27;;;8.05;;
51495;SDS011;37572;52.094;4.870;2023-05-25T01:07:49;18.65;;;7.75;;
51495;SDS011;37572;52.094;4.870;2023-05-25T01:10:16;15.95;;;8.02;;
51495;SDS011;37572;52.094;4.870;2023-05-25T01:12:46;16.98;;;7.45;;
51495;SDS011;37572;52.094;4.870;2023-05-25T01:15:14;14.68;;;6.90;;
51495;SDS011;37572;52.094;4.870;2023-05-25T01:17:40;17.45;;;7.78;;
51495;SDS011;37572;52.094;4.870;2023-05-25T01:20:06;19.83;;;7.28;;
51495;SDS011;37572;52.094;4.870;2023-05-25T01:22:36;15.48;;;6.55;;
51495;SDS011;37572;52.094;4.870;2023-05-25T01:25:21;13.88;;;6.75;;
51495;SDS011;37572;52.094;4.870;2023-05-25T01:27:53;14.18;;;6.90;;
51495;SDS011;37572;52.094;4.870;2023-05-25T01:30:25;14.07;;;6.82;;
51495;SDS011;37572;52.094;4.870;2023-05-25T01:32:52;15.10;;;6.57;;
51495;SDS011;37572;52.094;4.870;2023-05-25T01:35:18;14.68;;;7.35;;
51495;SDS011;37572;52.094;4.870;2023-05-25T01:37:45;18.40;;;8.63;;
51495;SDS011;37572;52.094;4.870;2023-05-25T01:40:14;14.70;;;7.10;;
51495;SDS011;37572;52.094;4.870;2023-05-25T01:42:40;15.25;;;7.60;;
51495;SDS011;37572;52.094;4.870;2023-05-25T01:45:05;13.75;;;7.07;;
51495;SDS011;37572;52.094;4.870;2023-05-25T01:47:47;14.27;;;7.72;;
51495;SDS011;37572;52.094;4.870;2023-05-25T01:53:22;15.00;;;6.80;;
51495;SDS011;37572;52.094;4.870;2023-05-25T01:58:18;14.82;;;7.75;;
51495;SDS011;37572;52.094;4.870;2023-05-25T02:00:46;15.98;;;6.97;;
51495;SDS011;37572;52.094;4.870;2023-05-25T02:03:14;15.30;;;8.63;;
51495;SDS011;37572;52.094;4.870;2023-05-25T02:05:40;15.65;;;7.53;;
51495;SDS011;37572;52.094;4.870;2023-05-25T02:08:06;6.82;;;5.30;;
51495;SDS011;37572;52.094;4.870;2023-05-25T02:10:31;8.45;;;4.57;;
51495;SDS011;37572;52.094;4.870;2023-05-25T02:12:57;7.00;;;3.85;;
51495;SDS011;37572;52.094;4.870;2023-05-25T02:15:22;4.13;;;3.03;;
51495;SDS011;37572;52.094;4.870;2023-05-25T02:17:48;7.05;;;3.17;;
51495;SDS011;37572;52.094;4.870;2023-05-25T02:20:13;6.60;;;3.47;;
51495;SDS011;37572;52.094;4.870;2023-05-25T02:22:38;5.65;;;3.38;;
51495;SDS011;37572;52.094;4.870;2023-05-25T02:25:04;7.17;;;3.87;;
51495;SDS011;37572;52.094;4.870;2023-05-25T02:27:29;7.25;;;4.20;;
51495;SDS011;37572;52.094;4.870;2023-05-25T02:29:55;6.33;;;3.53;;
51495;SDS011;37572;52.094;4.870;2023-05-25T02:32:20;4.65;;;3.08;;
51495;SDS011;37572;52.094;4.870;2023-05-25T02:34:46;6.93;;;4.05;;
51495;SDS011;37572;52.094;4.870;2023-05-25T02:37:12;6.05;;;5.18;;
51495;SDS011;37572;52.094;4.870;2023-05-25T02:39:38;7.03;;;4.90;;
51495;SDS011;37572;52.094;4.870;2023-05-25T02:42:03;7.80;;;5.13;;
51495;SDS011;37572;52.094;4.870;2023-05-25T02:44:29;9.45;;;5.88;;
51495;SDS011;37572;52.094;4.870;2023-05-25T02:46:55;7.20;;;5.07;;
51495;SDS011;37572;52.094;4.870;2023-05-25T02:49:20;9.67;;;5.83;;
51495;SDS011;37572;52.094;4.870;2023-05-25T02:51:45;11.85;;;5.93;;
51495;SDS011;37572;52.094;4.870;2023-05-25T02:54:11;11.90;;;5.82;;
51495;SDS011;37572;52.094;4.870;2023-05-25T02:56:36;10.70;;;6.23;;
51495;SDS011;37572;52.094;4.870;2023-05-25T02:59:01;11.50;;;6.67;;
51495;SDS011;37572;52.094;4.870;2023-05-25T03:01:27;10.02;;;5.75;;
51495;SDS011;37572;52.094;4.870;2023-05-25T03:03:54;7.50;;;5.10;;
51495;SDS011;37572;52.094;4.870;2023-05-25T03:06:20;8.40;;;5.30;;
51495;SDS011;37572;52.094;4.870;2023-05-25T03:08:46;9.40;;;5.45;;
51495;SDS011;37572;52.094;4.870;2023-05-25T03:11:12;6.90;;;3.58;;
51495;SDS011;37572;52.094;4.870;2023-05-25T03:13:37;3.83;;;3.37;;
51495;SDS011;37572;52.094;4.870;2023-05-25T03:16:03;4.45;;;3.55;;
51495;SDS011;37572;52.094;4.870;2023-05-25T03:18:28;3.70;;;2.45;;
51495;SDS011;37572;52.094;4.870;2023-05-25T03:20:53;3.17;;;2.33;;
51495;SDS011;37572;52.094;4.870;2023-05-25T03:23:19;3.10;;;2.45;;
51495;SDS011;37572;52.094;4.870;2023-05-25T03:25:44;2.85;;;1.92;;
51495;SDS011;37572;52.094;4.870;2023-05-25T03:28:10;5.72;;;3.85;;
51495;SDS011;37572;52.094;4.870;2023-05-25T03:30:35;4.72;;;3.25;;
51495;SDS011;37572;52.094;4.870;2023-05-25T03:33:01;4.97;;;2.90;;
51495;SDS011;37572;52.094;4.870;2023-05-25T03:35:26;5.17;;;2.80;;
51495;SDS011;37572;52.094;4.870;2023-05-25T03:37:51;7.03;;;3.83;;
51495;SDS011;37572;52.094;4.870;2023-05-25T03:40:17;6.97;;;4.32;;
51495;SDS011;37572;52.094;4.870;2023-05-25T03:42:42;7.60;;;5.47;;
51495;SDS011;37572;52.094;4.870;2023-05-25T03:45:07;10.60;;;6.07;;
51495;SDS011;37572;52.094;4.870;2023-05-25T03:47:34;10.32;;;5.82;;
51495;SDS011;37572;52.094;4.870;2023-05-25T03:50:00;8.93;;;5.95;;
51495;SDS011;37572;52.094;4.870;2023-05-25T03:52:27;9.90;;;6.30;;
51495;SDS011;37572;52.094;4.870;2023-05-25T03:54:52;9.13;;;4.85;;
51495;SDS011;37572;52.094;4.870;2023-05-25T03:57:17;7.30;;;4.13;;
51495;SDS011;37572;52.094;4.870;2023-05-25T03:59:43;7.45;;;3.92;;
51495;SDS011;37572;52.094;4.870;2023-05-25T04:02:08;6.17;;;4.17;;
51495;SDS011;37572;52.094;4.870;2023-05-25T04:04:33;5.83;;;4.10;;
51495;SDS011;37572;52.094;4.870;2023-05-25T04:06:59;4.40;;;3.25;;
51495;SDS011;37572;52.094;4.870;2023-05-25T04:09:24;3.60;;;2.35;;
51495;SDS011;37572;52.094;4.870;2023-05-25T04:11:50;4.28;;;3.13;;
51495;SDS011;37572;52.094;4.870;2023-05-25T04:14:15;4.07;;;2.83;;
51495;SDS011;37572;52.094;4.870;2023-05-25T04:16:40;4.43;;;2.80;;
51495;SDS011;37572;52.094;4.870;2023-05-25T04:19:06;2.95;;;2.65;;
51495;SDS011;37572;52.094;4.870;2023-05-25T04:21:31;3.42;;;2.40;;
51495;SDS011;37572;52.094;4.870;2023-05-25T04:23:56;3.80;;;2.35;;
51495;SDS011;37572;52.094;4.870;2023-05-25T04:26:22;4.32;;;2.72;;
51495;SDS011;37572;52.094;4.870;2023-05-25T04:28:50;4.22;;;2.85;;
51495;SDS011;37572;52.094;4.870;2023-05-25T04:31:18;4.88;;;3.30;;
51495;SDS011;37572;52.094;4.870;2023-05-25T04:33:44;3.95;;;2.70;;
51495;SDS011;37572;52.094;4.870;2023-05-25T04:36:09;4.60;;;2.67;;
51495;SDS011;37572;52.094;4.870;2023-05-25T04:38:34;5.43;;;2.47;;
51495;SDS011;37572;52.094;4.870;2023-05-25T04:41:00;9.32;;;4.28;;
51495;SDS011;37572;52.094;4.870;2023-05-25T04:43:29;9.20;;;4.07;;
51495;SDS011;37572;52.094;4.870;2023-05-25T04:45:55;11.57;;;5.50;;
51495;SDS011;37572;52.094;4.870;2023-05-25T04:48:20;12.68;;;5.35;;
51495;SDS011;37572;52.094;4.870;2023-05-25T04:50:48;11.82;;;5.05;;
51495;SDS011;37572;52.094;4.870;2023-05-25T04:53:13;12.73;;;5.93;;
51495;SDS011;37572;52.094;4.870;2023-05-25T04:55:39;8.82;;;4.63;;
51495;SDS011;37572;52.094;4.870;2023-05-25T04:58:04;8.97;;;4.87;;
51495;SDS011;37572;52.094;4.870;2023-05-25T05:00:30;9.40;;;4.97;;
51495;SDS011;37572;52.094;4.870;2023-05-25T05:02:55;9.02;;;3.97;;
51495;SDS011;37572;52.094;4.870;2023-05-25T05:05:22;8.57;;;4.88;;
51495;SDS011;37572;52.094;4.870;2023-05-25T05:07:48;12.40;;;5.43;;
51495;SDS011;37572;52.094;4.870;2023-05-25T05:10:13;8.63;;;4.07;;
51495;SDS011;37572;52.094;4.870;2023-05-25T05:12:38;10.47;;;6.23;;
51495;SDS011;37572;52.094;4.870;2023-05-25T05:15:04;11.40;;;5.72;;
51495;SDS011;37572;52.094;4.870;2023-05-25T05:17:30;13.65;;;5.95;;
51495;SDS011;37572;52.094;4.870;2023-05-25T05:19:55;12.55;;;5.22;;
51495;SDS011;37572;52.094;4.870;2023-05-25T05:22:21;12.68;;;5.72;;
51495;SDS011;37572;52.094;4.870;2023-05-25T05:24:46;11.15;;;5.38;;
51495;SDS011;37572;52.094;4.870;2023-05-25T05:27:12;14.17;;;5.43;;
51495;SDS011;37572;52.094;4.870;2023-05-25T05:29:40;11.00;;;5.35;;
51495;SDS011;37572;52.094;4.870;2023-05-25T05:32:06;8.65;;;4.38;;
51495;SDS011;37572;52.094;4.870;2023-05-25T05:34:32;9.75;;;5.30;;
51495;SDS011;37572;52.094;4.870;2023-05-25T05:36:58;11.25;;;5.53;;
51495;SDS011;37572;52.094;4.870;2023-05-25T05:39:24;10.25;;;4.78;;
51495;SDS011;37572;52.094;4.870;2023-05-25T05:41:51;11.20;;;5.68;;
51495;SDS011;37572;52.094;4.870;2023-05-25T05:44:16;10.18;;;5.22;;
51495;SDS011;37572;52.094;4.870;2023-05-25T05:46:41;8.00;;;4.07;;
51495;SDS011;37572;52.094;4.870;2023-05-25T05:49:07;8.90;;;4.25;;
51495;SDS011;37572;52.094;4.870;2023-05-25T05:51:32;11.48;;;4.40;;
51495;SDS011;37572;52.094;4.870;2023-05-25T05:53:57;7.03;;;3.50;;
51495;SDS011;37572;52.094;4.870;2023-05-25T05:56:23;8.25;;;3.97;;
51495;SDS011;37572;52.094;4.870;2023-05-25T05:58:48;11.30;;;4.93;;
51495;SDS011;37572;52.094;4.870;2023-05-25T06:01:15;11.13;;;4.70;;
51495;SDS011;37572;52.094;4.870;2023-05-25T06:03:41;8.52;;;5.13;;
51495;SDS011;37572;52.094;4.870;2023-05-25T06:06:07;11.38;;;4.53;;
51495;SDS011;37572;52.094;4.870;2023-05-25T06:08:32;10.50;;;5.35;;
51495;SDS011;37572;52.094;4.870;2023-05-25T06:10:58;8.60;;;3.83;;
51495;SDS011;37572;52.094;4.870;2023-05-25T06:13:23;8.38;;;4.45;;
51495;SDS011;37572;52.094;4.870;2023-05-25T06:15:48;9.13;;;4.20;;
51495;SDS011;37572;52.094;4.870;2023-05-25T06:18:14;6.85;;;3.80;;
51495;SDS011;37572;52.094;4.870;2023-05-25T06:20:40;14.18;;;4.82;;
51495;SDS011;37572;52.094;4.870;2023-05-25T06:23:05;10.07;;;4.27;;
51495;SDS011;37572;52.094;4.870;2023-05-25T06:25:31;12.88;;;4.65;;
51495;SDS011;37572;52.094;4.870;2023-05-25T06:27:56;9.57;;;3.83;;
51495;SDS011;37572;52.094;4.870;2023-05-25T06:30:22;10.00;;;4.25;;
51495;SDS011;37572;52.094;4.870;2023-05-25T06:32:47;10.30;;;4.22;;
51495;SDS011;37572;52.094;4.870;2023-05-25T06:35:12;8.63;;;4.10;;
51495;SDS011;37572;52.094;4.870;2023-05-25T06:37:46;7.72;;;3.75;;
51495;SDS011;37572;52.094;4.870;2023-05-25T06:40:13;11.45;;;4.07;;
51495;SDS011;37572;52.094;4.870;2023-05-25T06:42:41;8.88;;;3.38;;
51495;SDS011;37572;52.094;4.870;2023-05-25T06:45:07;11.10;;;4.85;;
51495;SDS011;37572;52.094;4.870;2023-05-25T06:47:33;7.22;;;3.53;;
51495;SDS011;37572;52.094;4.870;2023-05-25T06:49:59;9.80;;;4.40;;
51495;SDS011;37572;52.094;4.870;2023-05-25T06:52:25;8.10;;;3.78;;
51495;SDS011;37572;52.094;4.870;2023-05-25T06:54:54;10.75;;;4.43;;
51495;SDS011;37572;52.094;4.870;2023-05-25T06:57:20;7.18;;;4.43;;
51495;SDS011;37572;52.094;4.870;2023-05-25T06:59:46;8.13;;;3.90;;
51495;SDS011;37572;52.094;4.870;2023-05-25T07:02:13;9.52;;;3.92;;
51495;SDS011;37572;52.094;4.870;2023-05-25T07:04:38;10.30;;;4.03;;
51495;SDS011;37572;52.094;4.870;2023-05-25T07:07:05;9.43;;;4.07;;
51495;SDS011;37572;52.094;4.870;2023-05-25T07:09:30;7.57;;;3.92;;
51495;SDS011;37572;52.094;4.870;2023-05-25T07:11:56;10.02;;;3.80;;
51495;SDS011;37572;52.094;4.870;2023-05-25T07:14:22;8.15;;;3.67;;
51495;SDS011;37572;52.094;4.870;2023-05-25T07:16:47;8.37;;;3.47;;
51495;SDS011;37572;52.094;4.870;2023-05-25T07:19:12;6.35;;;2.55;;
51495;SDS011;37572;52.094;4.870;2023-05-25T07:21:38;8.20;;;3.53;;
51495;SDS011;37572;52.094;4.870;2023-05-25T07:24:03;7.90;;;3.20;;
51495;SDS011;37572;52.094;4.870;2023-05-25T07:26:29;7.55;;;4.25;;
51495;SDS011;37572;52.094;4.870;2023-05-25T07:28:55;8.32;;;3.95;;
51495;SDS011;37572;52.094;4.870;2023-05-25T07:31:21;10.90;;;3.95;;
51495;SDS011;37572;52.094;4.870;2023-05-25T07:33:46;9.10;;;3.55;;
51495;SDS011;37572;52.094;4.870;2023-05-25T07:36:12;7.63;;;3.10;;
51495;SDS011;37572;52.094;4.870;2023-05-25T07:38:37;7.03;;;2.95;;
51495;SDS011;37572;52.094;4.870;2023-05-25T07:41:03;9.88;;;2.67;;
51495;SDS011;37572;52.094;4.870;2023-05-25T07:43:28;7.72;;;2.97;;
51495;SDS011;37572;52.094;4.870;2023-05-25T07:45:53;7.37;;;2.60;;
51495;SDS011;37572;52.094;4.870;2023-05-25T07:48:19;6.32;;;2.50;;
51495;SDS011;37572;52.094;4.870;2023-05-25T07:50:44;4.32;;;2.40;;
51495;SDS011;37572;52.094;4.870;2023-05-25T07:53:10;7.35;;;2.60;;
51495;SDS011;37572;52.094;4.870;2023-05-25T07:55:35;5.17;;;2.67;;
51495;SDS011;37572;52.094;4.870;2023-05-25T07:58:00;5.80;;;2.80;;
51495;SDS011;37572;52.094;4.870;2023-05-25T08:00:26;4.77;;;2.73;;
51495;SDS011;37572;52.094;4.870;2023-05-25T08:02:51;4.95;;;3.22;;
51495;SDS011;37572;52.094;4.870;2023-05-25T08:05:16;6.93;;;2.50;;
51495;SDS011;37572;52.094;4.870;2023-05-25T08:07:42;6.13;;;2.33;;
51495;SDS011;37572;52.094;4.870;2023-05-25T08:10:08;6.82;;;2.50;;
51495;SDS011;37572;52.094;4.870;2023-05-25T08:12:34;6.22;;;2.63;;
51495;SDS011;37572;52.094;4.870;2023-05-25T08:15:00;4.85;;;2.70;;
51495;SDS011;37572;52.094;4.870;2023-05-25T08:17:25;5.97;;;2.80;;
51495;SDS011;37572;52.094;4.870;2023-05-25T08:19:50;9.13;;;2.80;;
51495;SDS011;37572;52.094;4.870;2023-05-25T08:22:18;6.72;;;2.58;;
51495;SDS011;37572;52.094;4.870;2023-05-25T08:24:43;8.97;;;2.77;;
51495;SDS011;37572;52.094;4.870;2023-05-25T08:27:08;5.57;;;2.95;;
51495;SDS011;37572;52.094;4.870;2023-05-25T08:29:33;9.90;;;2.90;;
51495;SDS011;37572;52.094;4.870;2023-05-25T08:31:59;6.25;;;3.22;;
51495;SDS011;37572;52.094;4.870;2023-05-25T08:34:24;6.10;;;3.13;;
51495;SDS011;37572;52.094;4.870;2023-05-25T08:36:50;7.38;;;2.90;;
51495;SDS011;37572;52.094;4.870;2023-05-25T08:39:16;7.37;;;4.03;;
51495;SDS011;37572;52.094;4.870;2023-05-25T08:41:44;6.27;;;3.00;;
51495;SDS011;37572;52.094;4.870;2023-05-25T08:44:09;7.38;;;3.55;;
51495;SDS011;37572;52.094;4.870;2023-05-25T08:46:35;8.38;;;3.63;;
51495;SDS011;37572;52.094;4.870;2023-05-25T08:49:03;8.60;;;3.55;;
51495;SDS011;37572;52.094;4.870;2023-05-25T08:51:35;7.55;;;4.05;;
51495;SDS011;37572;52.094;4.870;2023-05-25T08:54:09;5.82;;;2.80;;
51495;SDS011;37572;52.094;4.870;2023-05-25T08:56:43;7.45;;;3.47;;
51495;SDS011;37572;52.094;4.870;2023-05-25T08:59:16;7.57;;;2.92;;
51495;SDS011;37572;52.094;4.870;2023-05-25T09:01:55;6.80;;;3.42;;
51495;SDS011;37572;52.094;4.870;2023-05-25T09:04:25;5.40;;;3.22;;
51495;SDS011;37572;52.094;4.870;2023-05-25T09:06:51;9.95;;;2.97;;
51495;SDS011;37572;52.094;4.870;2023-05-25T09:09:17;6.57;;;2.65;;
51495;SDS011;37572;52.094;4.870;2023-05-25T09:11:42;7.82;;;4.25;;
51495;SDS011;37572;52.094;4.870;2023-05-25T09:14:08;9.25;;;3.20;;
51495;SDS011;37572;52.094;4.870;2023-05-25T09:16:38;8.10;;;3.72;;
51495;SDS011;37572;52.094;4.870;2023-05-25T09:19:04;6.13;;;3.30;;
51495;SDS011;37572;52.094;4.870;2023-05-25T09:21:29;8.90;;;3.00;;
51495;SDS011;37572;52.094;4.870;2023-05-25T09:23:55;5.68;;;2.85;;
51495;SDS011;37572;52.094;4.870;2023-05-25T09:26:21;7.78;;;3.40;;
51495;SDS011;37572;52.094;4.870;2023-05-25T09:28:47;8.83;;;2.80;;
51495;SDS011;37572;52.094;4.870;2023-05-25T09:31:13;9.60;;;3.33;;
51495;SDS011;37572;52.094;4.870;2023-05-25T09:33:39;7.28;;;3.35;;
51495;SDS011;37572;52.094;4.870;2023-05-25T09:36:05;7.18;;;3.17;;
51495;SDS011;37572;52.094;4.870;2023-05-25T09:38:31;7.00;;;3.58;;
51495;SDS011;37572;52.094;4.870;2023-05-25T09:40:57;7.95;;;3.33;;
51495;SDS011;37572;52.094;4.870;2023-05-25T09:43:22;7.25;;;3.50;;
51495;SDS011;37572;52.094;4.870;2023-05-25T09:45:48;6.90;;;3.10;;
51495;SDS011;37572;52.094;4.870;2023-05-25T09:48:15;7.93;;;3.15;;
51495;SDS011;37572;52.094;4.870;2023-05-25T09:50:41;9.18;;;3.58;;
51495;SDS011;37572;52.094;4.870;2023-05-25T09:53:07;7.07;;;3.20;;
51495;SDS011;37572;52.094;4.870;2023-05-25T09:55:32;6.33;;;3.20;;
51495;SDS011;37572;52.094;4.870;2023-05-25T09:57:58;8.15;;;2.92;;
51495;SDS011;37572;52.094;4.870;2023-05-25T10:00:25;4.80;;;2.53;;
51495;SDS011;37572;52.094;4.870;2023-05-25T10:02:50;6.85;;;2.65;;
51495;SDS011;37572;52.094;4.870;2023-05-25T10:05:16;7.38;;;3.17;;
51495;SDS011;37572;52.094;4.870;2023-05-25T10:07:43;8.82;;;3.13;;
51495;SDS011;37572;52.094;4.870;2023-05-25T10:10:09;7.20;;;2.90;;
51495;SDS011;37572;52.094;4.870;2023-05-25T10:12:40;9.07;;;3.45;;
51495;SDS011;37572;52.094;4.870;2023-05-25T10:15:06;9.57;;;3.05;;
51495;SDS011;37572;52.094;4.870;2023-05-25T10:17:34;6.53;;;2.92;;
51495;SDS011;37572;52.094;4.870;2023-05-25T10:20:00;7.97;;;3.10;;
51495;SDS011;37572;52.094;4.870;2023-05-25T10:22:32;6.03;;;2.55;;
51495;SDS011;37572;52.094;4.870;2023-05-25T10:25:07;8.23;;;2.33;;
51495;SDS011;37572;52.094;4.870;2023-05-25T10:27:40;6.75;;;3.28;;
51495;SDS011;37572;52.094;4.870;2023-05-25T10:30:19;8.30;;;3.03;;
51495;SDS011;37572;52.094;4.870;2023-05-25T10:32:45;8.15;;;2.95;;
51495;SDS011;37572;52.094;4.870;2023-05-25T10:35:11;7.28;;;2.83;;
51495;SDS011;37572;52.094;4.870;2023-05-25T10:37:38;6.80;;;3.70;;
51495;SDS011;37572;52.094;4.870;2023-05-25T10:40:04;6.28;;;4.13;;
51495;SDS011;37572;52.094;4.870;2023-05-25T10:42:32;7.53;;;3.50;;
51495;SDS011;37572;52.094;4.870;2023-05-25T10:45:00;6.90;;;3.60;;
51495;SDS011;37572;52.094;4.870;2023-05-25T10:47:28;8.77;;;4.40;;
51495;SDS011;37572;52.094;4.870;2023-05-25T10:49:55;7.72;;;4.18;;
51495;SDS011;37572;52.094;4.870;2023-05-25T10:52:28;10.43;;;4.25;;
51495;SDS011;37572;52.094;4.870;2023-05-25T10:55:00;10.15;;;4.35;;
51495;SDS011;37572;52.094;4.870;2023-05-25T10:57:28;8.27;;;3.67;;
51495;SDS011;37572;52.094;4.870;2023-05-25T10:59:54;9.52;;;4.63;;
51495;SDS011;37572;52.094;4.870;2023-05-25T11:02:29;7.95;;;4.55;;
51495;SDS011;37572;52.094;4.870;2023-05-25T11:07:57;10.88;;;4.82;;
51495;SDS011;37572;52.094;4.870;2023-05-25T11:13:31;9.27;;;4.57;;
51495;SDS011;37572;52.094;4.870;2023-05-25T11:16:14;10.15;;;4.32;;
51495;SDS011;37572;52.094;4.870;2023-05-25T11:18:41;7.03;;;3.97;;
51495;SDS011;37572;52.094;4.870;2023-05-25T11:21:14;10.35;;;4.07;;
51495;SDS011;37572;52.094;4.870;2023-05-25T11:26:20;9.30;;;3.97;;
51495;SDS011;37572;52.094;4.870;2023-05-25T11:28:47;8.80;;;4.20;;
51495;SDS011;37572;52.094;4.870;2023-05-25T11:31:13;10.15;;;4.30;;
51495;SDS011;37572;52.094;4.870;2023-05-25T11:33:38;8.98;;;4.28;;
51495;SDS011;37572;52.094;4.870;2023-05-25T11:36:05;8.98;;;3.60;;
51495;SDS011;37572;52.094;4.870;2023-05-25T11:38:32;6.85;;;3.08;;
51495;SDS011;37572;52.094;4.870;2023-05-25T11:41:01;6.95;;;2.97;;
51495;SDS011;37572;52.094;4.870;2023-05-25T11:43:28;6.50;;;3.17;;
51495;SDS011;37572;52.094;4.870;2023-05-25T11:45:55;6.63;;;2.75;;
51495;SDS011;37572;52.094;4.870;2023-05-25T11:48:20;9.25;;;2.88;;
51495;SDS011;37572;52.094;4.870;2023-05-25T11:50:46;6.07;;;2.30;;
51495;SDS011;37572;52.094;4.870;2023-05-25T11:53:11;10.02;;;3.38;;
51495;SDS011;37572;52.094;4.870;2023-05-25T11:55:37;6.35;;;3.17;;
51495;SDS011;37572;52.094;4.870;2023-05-25T11:58:05;5.57;;;2.75;;
51495;SDS011;37572;52.094;4.870;2023-05-25T12:00:30;4.35;;;1.80;;
51495;SDS011;37572;52.094;4.870;2023-05-25T12:02:56;5.90;;;2.42;;
51495;SDS011;37572;52.094;4.870;2023-05-25T12:05:22;7.13;;;3.08;;
51495;SDS011;37572;52.094;4.870;2023-05-25T12:07:48;6.07;;;2.10;;
51495;SDS011;37572;52.094;4.870;2023-05-25T12:10:14;6.47;;;2.83;;
51495;SDS011;37572;52.094;4.870;2023-05-25T12:12:44;7.53;;;2.47;;
51495;SDS011;37572;52.094;4.870;2023-05-25T12:15:11;8.13;;;3.05;;
51495;SDS011;37572;52.094;4.870;2023-05-25T12:17:39;8.63;;;3.28;;
51495;SDS011;37572;52.094;4.870;2023-05-25T12:20:07;7.97;;;3.67;;
51495;SDS011;37572;52.094;4.870;2023-05-25T12:22:33;10.07;;;4.25;;
51495;SDS011;37572;52.094;4.870;2023-05-25T12:24:59;12.65;;;3.63;;
51495;SDS011;37572;52.094;4.870;2023-05-25T12:27:25;7.82;;;3.17;;
51495;SDS011;37572;52.094;4.870;2023-05-25T12:29:50;6.75;;;3.53;;
51495;SDS011;37572;52.094;4.870;2023-05-25T12:32:17;7.53;;;2.97;;
51495;SDS011;37572;52.094;4.870;2023-05-25T12:34:42;9.50;;;2.70;;
51495;SDS011;37572;52.094;4.870;2023-05-25T12:37:18;8.32;;;3.55;;
51495;SDS011;37572;52.094;4.870;2023-05-25T12:39:44;8.98;;;4.43;;
51495;SDS011;37572;52.094;4.870;2023-05-25T12:42:13;8.88;;;3.78;;
51495;SDS011;37572;52.094;4.870;2023-05-25T12:44:40;9.43;;;3.65;;
51495;SDS011;37572;52.094;4.870;2023-05-25T12:47:14;8.57;;;3.13;;
51495;SDS011;37572;52.094;4.870;2023-05-25T12:49:40;6.40;;;2.78;;
51495;SDS011;37572;52.094;4.870;2023-05-25T12:52:07;7.65;;;3.17;;
51495;SDS011;37572;52.094;4.870;2023-05-25T12:54:35;7.45;;;2.95;;
51495;SDS011;37572;52.094;4.870;2023-05-25T12:57:02;6.95;;;3.22;;
51495;SDS011;37572;52.094;4.870;2023-05-25T12:59:30;8.45;;;3.28;;
51495;SDS011;37572;52.094;4.870;2023-05-25T13:01:56;10.43;;;2.67;;
51495;SDS011;37572;52.094;4.870;2023-05-25T13:04:22;13.23;;;3.55;;
51495;SDS011;37572;52.094;4.870;2023-05-25T13:06:47;8.55;;;3.42;;
51495;SDS011;37572;52.094;4.870;2023-05-25T13:09:13;8.88;;;2.97;;
51495;SDS011;37572;52.094;4.870;2023-05-25T13:11:39;11.10;;;2.85;;
51495;SDS011;37572;52.094;4.870;2023-05-25T13:14:05;9.55;;;3.00;;
51495;SDS011;37572;52.094;4.870;2023-05-25T13:16:34;9.45;;;2.75;;
51495;SDS011;37572;52.094;4.870;2023-05-25T13:18:59;12.95;;;3.30;;
51495;SDS011;37572;52.094;4.870;2023-05-25T13:21:25;12.07;;;3.70;;
51495;SDS011;37572;52.094;4.870;2023-05-25T13:23:51;10.30;;;3.33;;
51495;SDS011;37572;52.094;4.870;2023-05-25T13:26:17;11.60;;;3.50;;
51495;SDS011;37572;52.094;4.870;2023-05-25T13:28:43;9.20;;;2.75;;
51495;SDS011;37572;52.094;4.870;2023-05-25T13:31:08;12.57;;;3.60;;
51495;SDS011;37572;52.094;4.870;2023-05-25T13:33:34;9.48;;;2.40;;
51495;SDS011;37572;52.094;4.870;2023-05-25T13:35:59;13.23;;;3.40;;
51495;SDS011;37572;52.094;4.870;2023-05-25T13:38:34;11.35;;;2.92;;
51495;SDS011;37572;52.094;4.870;2023-05-25T13:41:00;13.25;;;3.80;;
51495;SDS011;37572;52.094;4.870;2023-05-25T13:43:25;13.52;;;2.72;;
51495;SDS011;37572;52.094;4.870;2023-05-25T13:45:51;13.15;;;4.07;;
51495;SDS011;37572;52.094;4.870;2023-05-25T13:48:16;11.23;;;3.13;;
51495;SDS011;37572;52.094;4.870;2023-05-25T13:50:42;14.60;;;3.38;;
51495;SDS011;37572;52.094;4.870;2023-05-25T13:53:09;11.05;;;4.32;;
51495;SDS011;37572;52.094;4.870;2023-05-25T13:55:34;9.80;;;4.57;;
51495;SDS011;37572;52.094;4.870;2023-05-25T13:58:00;12.73;;;4.67;;
51495;SDS011;37572;52.094;4.870;2023-05-25T14:00:25;7.97;;;3.33;;
51495;SDS011;37572;52.094;4.870;2023-05-25T14:02:51;9.52;;;3.60;;
51495;SDS011;37572;52.094;4.870;2023-05-25T14:05:17;10.07;;;3.15;;
51495;SDS011;37572;52.094;4.870;2023-05-25T14:07:43;10.27;;;3.53;;
51495;SDS011;37572;52.094;4.870;2023-05-25T14:10:09;17.60;;;4.28;;
51495;SDS011;37572;52.094;4.870;2023-05-25T14:12:34;12.82;;;4.45;;
51495;SDS011;37572;52.094;4.870;2023-05-25T14:15:00;13.60;;;3.83;;
51495;SDS011;37572;52.094;4.870;2023-05-25T14:17:25;9.98;;;3.72;;
51495;SDS011;37572;52.094;4.870;2023-05-25T14:19:50;11.83;;;3.83;;
51495;SDS011;37572;52.094;4.870;2023-05-25T14:22:16;14.25;;;3.90;;
51495;SDS011;37572;52.094;4.870;2023-05-25T14:24:41;16.65;;;4.47;;
51495;SDS011;37572;52.094;4.870;2023-05-25T14:27:06;11.03;;;3.57;;
51495;SDS011;37572;52.094;4.870;2023-05-25T14:29:32;8.77;;;4.07;;
51495;SDS011;37572;52.094;4.870;2023-05-25T14:31:57;14.52;;;3.60;;
51495;SDS011;37572;52.094;4.870;2023-05-25T14:34:22;11.93;;;3.35;;
51495;SDS011;37572;52.094;4.870;2023-05-25T14:36:48;12.90;;;3.70;;
51495;SDS011;37572;52.094;4.870;2023-05-25T14:39:13;10.07;;;2.97;;
51495;SDS011;37572;52.094;4.870;2023-05-25T14:41:38;9.93;;;4.33;;
51495;SDS011;37572;52.094;4.870;2023-05-25T14:44:04;10.77;;;2.88;;
51495;SDS011;37572;52.094;4.870;2023-05-25T14:46:31;11.77;;;3.17;;
51495;SDS011;37572;52.094;4.870;2023-05-25T14:48:57;8.88;;;3.38;;
51495;SDS011;37572;52.094;4.870;2023-05-25T14:51:23;12.93;;;3.63;;
51495;SDS011;37572;52.094;4.870;2023-05-25T14:53:49;11.32;;;3.13;;